Time;durP1;ratioP1;P1;durP2;ratioP2;P2;SDS_P1;SDS_P2;PMS_P1;PMS_P2;Temp;Humidity;BMP_temperature;BMP_pressure;BME280_temperature;BME280_humidity;BME280_pressure;Samples;Min_cycle;Max_cycle;Signal;HPM_P1;HPM_P2
2024/01/31 00:00:12;;;;;;;7.65;4.68;;;11.10;71.10;;;;;;2520295;54;20993;-66
2024/01/31 00:02:38;;;;;;;7.10;4.30;;;11.10;71.20;;;;;;2286348;55;22480;-66
2024/01/31 00:05:05;;;;;;;6.75;4.28;;;11.10;71.10;;;;;;2286045;55;22045;-67
2024/01/31 00:07:31;;;;;;;7.45;4.18;;;11.10;71.10;;;;;;2289130;55;21712;-67
2024/01/31 00:09:58;;;;;;;7.75;4.32;;;11.00;71.00;;;;;;2278501;56;21021;-67
2024/01/31 00:12:24;;;;;;;7.87;4.55;;;11.00;71.00;;;;;;2520219;54;20956;-67
2024/01/31 00:14:51;;;;;;;6.35;3.58;;;11.00;71.10;;;;;;2519758;54;20988;-67
2024/01/31 00:17:17;;;;;;;5.93;3.28;;;11.00;71.10;;;;;;2511125;54;20946;-66
2024/01/31 00:19:44;;;;;;;7.90;4.53;;;11.00;71.10;;;;;;2517832;54;21014;-67
2024/01/31 00:22:10;;;;;;;7.22;4.45;;;10.90;71.10;;;;;;2279805;55;21877;-66
2024/01/31 00:24:37;;;;;;;6.97;4.18;;;10.90;71.00;;;;;;2286559;55;20949;-67
2024/01/31 00:27:06;;;;;;;10.77;5.57;;;10.90;71.10;;;;;;2286313;55;21065;-67
2024/01/31 00:29:33;;;;;;;9.05;4.35;;;10.90;71.10;;;;;;2285877;55;21415;-67
2024/01/31 00:32:00;;;;;;;7.32;4.32;;;10.90;71.20;;;;;;2520996;54;20953;-67
2024/01/31 00:34:27;;;;;;;8.30;4.50;;;10.90;71.20;;;;;;2520080;54;20934;-66
2024/01/31 00:36:53;;;;;;;8.57;4.68;;;10.80;71.10;;;;;;2288373;55;20961;-66
2024/01/31 00:39:20;;;;;;;7.57;4.53;;;10.80;71.10;;;;;;2279822;55;20961;-66
2024/01/31 00:41:50;;;;;;;8.70;5.07;;;10.80;71.10;;;;;;2513499;54;20930;-66
2024/01/31 00:44:19;;;;;;;8.13;4.75;;;10.80;71.00;;;;;;2286145;55;21017;-66
2024/01/31 00:46:47;;;;;;;8.57;5.07;;;10.80;71.20;;;;;;2286476;55;20997;-67
2024/01/31 00:49:13;;;;;;;9.88;5.78;;;10.80;71.20;;;;;;2286831;55;21450;-67
2024/01/31 00:51:43;;;;;;;8.02;5.03;;;10.80;71.30;;;;;;2286556;55;21169;-65
2024/01/31 00:54:12;;;;;;;8.70;4.80;;;10.80;71.20;;;;;;2520798;54;20929;-66
2024/01/31 00:56:39;;;;;;;11.48;6.40;;;10.70;71.30;;;;;;2285357;55;20985;-66
2024/01/31 00:59:05;;;;;;;11.30;6.20;;;10.70;71.40;;;;;;2286724;55;21045;-65
2024/01/31 01:01:35;;;;;;;9.77;6.05;;;10.70;71.30;;;;;;2286503;55;21725;-66
2024/01/31 01:04:01;;;;;;;11.45;6.37;;;10.70;71.40;;;;;;2279870;56;21675;-65
2024/01/31 01:06:27;;;;;;;12.48;7.43;;;10.70;71.40;;;;;;2285150;55;20929;-66
2024/01/31 01:08:55;;;;;;;12.95;7.37;;;10.70;71.40;;;;;;2520968;54;20988;-66
2024/01/31 01:11:21;;;;;;;11.90;6.62;;;10.70;71.40;;;;;;2519654;54;20948;-67
2024/01/31 01:13:48;;;;;;;13.40;7.15;;;10.70;71.50;;;;;;2520106;54;20956;-66
2024/01/31 01:16:15;;;;;;;14.60;8.60;;;10.70;71.60;;;;;;2286032;55;21926;-66
2024/01/31 01:18:42;;;;;;;15.45;8.82;;;10.70;71.70;;;;;;2285554;55;20969;-67
2024/01/31 01:21:08;;;;;;;16.52;7.75;;;10.70;71.70;;;;;;2520768;54;21462;-66
2024/01/31 01:23:34;;;;;;;16.00;8.27;;;10.70;71.70;;;;;;2285930;55;21001;-66
2024/01/31 01:26:01;;;;;;;13.10;7.97;;;10.70;71.80;;;;;;2285659;55;21458;-66
2024/01/31 01:28:28;;;;;;;12.70;6.40;;;10.70;71.80;;;;;;2285626;55;21358;-66
2024/01/31 01:30:54;;;;;;;10.38;6.25;;;10.70;71.90;;;;;;2285704;55;21057;-65
2024/01/31 01:33:20;;;;;;;11.18;6.35;;;10.70;72.00;;;;;;2287238;55;20977;-65
2024/01/31 01:35:47;;;;;;;10.85;6.32;;;10.70;72.00;;;;;;2281551;56;21386;-66
2024/01/31 01:38:13;;;;;;;10.70;6.25;;;10.70;72.10;;;;;;2286491;55;20941;-66
2024/01/31 01:40:43;;;;;;;14.18;7.15;;;10.80;72.20;;;;;;2286444;55;21430;-66
2024/01/31 01:43:19;;;;;;;12.18;6.25;;;10.80;72.10;;;;;;2286731;55;21019;-67
2024/01/31 01:45:45;;;;;;;11.93;6.20;;;10.80;71.90;;;;;;2286761;55;21024;-66
2024/01/31 01:48:13;;;;;;;13.35;6.12;;;10.80;72.30;;;;;;2286205;55;20932;-67
2024/01/31 01:50:39;;;;;;;8.98;5.78;;;10.80;72.30;;;;;;2286131;55;21478;-67
2024/01/31 01:53:07;;;;;;;9.80;5.87;;;10.80;72.30;;;;;;2281038;56;21017;-65
2024/01/31 01:55:33;;;;;;;8.35;5.15;;;10.80;72.30;;;;;;2286688;55;20925;-66
2024/01/31 01:58:01;;;;;;;9.05;5.40;;;10.80;72.30;;;;;;2285304;55;21739;-66
2024/01/31 02:00:27;;;;;;;10.20;5.45;;;10.90;72.40;;;;;;2286046;55;20901;-67
2024/01/31 02:02:53;;;;;;;9.95;5.80;;;10.90;72.30;;;;;;2285447;55;20989;-67
2024/01/31 02:05:20;;;;;;;8.88;5.53;;;10.90;72.20;;;;;;2285926;55;21021;-65
2024/01/31 02:07:46;;;;;;;10.48;5.90;;;10.90;72.10;;;;;;2520593;54;20965;-66
2024/01/31 02:10:15;;;;;;;10.45;6.07;;;10.90;72.00;;;;;;2521281;54;20980;-67
2024/01/31 02:12:41;;;;;;;10.70;5.90;;;10.90;71.90;;;;;;2519675;54;21534;-67
2024/01/31 02:15:09;;;;;;;12.23;6.55;;;10.90;72.70;;;;;;2286867;55;20909;-66
2024/01/31 02:17:35;;;;;;;10.18;5.78;;;10.90;71.90;;;;;;2286066;55;21526;-66
2024/01/31 02:20:03;;;;;;;12.43;6.32;;;10.90;71.90;;;;;;2520252;54;21858;-66
2024/01/31 02:22:29;;;;;;;9.55;5.60;;;10.90;71.90;;;;;;2285056;55;21005;-67
2024/01/31 02:24:56;;;;;;;9.65;5.80;;;10.90;71.90;;;;;;2520348;54;20917;-66
2024/01/31 02:27:22;;;;;;;10.38;5.57;;;10.90;71.80;;;;;;2285744;55;21029;-67
2024/01/31 02:29:48;;;;;;;11.15;6.20;;;10.90;71.90;;;;;;2286670;55;20972;-65
2024/01/31 02:32:15;;;;;;;10.98;6.03;;;10.90;71.90;;;;;;2521106;54;20988;-67
2024/01/31 02:34:43;;;;;;;7.57;4.53;;;10.90;71.90;;;;;;2285616;55;20925;-66
2024/01/31 02:37:10;;;;;;;9.32;5.30;;;10.90;71.90;;;;;;2519647;54;21070;-66
2024/01/31 02:39:36;;;;;;;7.90;4.37;;;10.90;72.00;;;;;;2285841;55;20929;-67
2024/01/31 02:42:03;;;;;;;8.02;4.53;;;10.90;72.00;;;;;;2286194;55;21518;-67
2024/01/31 02:44:29;;;;;;;9.95;5.35;;;10.90;72.00;;;;;;2520301;54;20981;-66
2024/01/31 02:46:55;;;;;;;8.70;4.97;;;10.90;72.10;;;;;;2286351;55;21021;-66
2024/01/31 02:49:22;;;;;;;8.02;4.72;;;10.90;72.10;;;;;;2514824;54;20959;-67
2024/01/31 02:51:48;;;;;;;7.05;4.18;;;10.90;72.10;;;;;;2278495;56;20946;-66
2024/01/31 02:54:15;;;;;;;7.68;3.95;;;10.90;72.20;;;;;;2287497;55;20961;-66
2024/01/31 02:56:41;;;;;;;6.32;3.60;;;10.90;72.20;;;;;;2281678;56;20922;-66
2024/01/31 02:59:07;;;;;;;7.15;3.95;;;10.90;72.20;;;;;;2286748;56;20957;-67
2024/01/31 03:01:36;;;;;;;7.22;3.92;;;10.70;72.10;;;;;;2286459;55;21012;-67
2024/01/31 03:04:04;;;;;;;6.47;3.92;;;10.90;72.30;;;;;;2286717;55;21269;-66
2024/01/31 03:06:31;;;;;;;7.43;4.10;;;10.90;72.30;;;;;;2520486;54;20960;-66
2024/01/31 03:08:57;;;;;;;6.93;3.50;;;10.90;72.30;;;;;;2520563;54;21057;-67
2024/01/31 03:11:25;;;;;;;6.70;4.05;;;11.00;72.40;;;;;;2285964;56;20965;-67
2024/01/31 03:13:54;;;;;;;7.10;4.12;;;11.00;72.40;;;;;;2283985;55;20942;-66
2024/01/31 03:16:23;;;;;;;7.22;3.75;;;11.00;72.30;;;;;;2284191;55;21403;-66
2024/01/31 03:18:49;;;;;;;7.53;4.37;;;11.00;72.40;;;;;;2285880;55;20977;-67
2024/01/31 03:21:19;;;;;;;7.25;3.87;;;11.00;72.40;;;;;;2282053;55;20910;-66
2024/01/31 03:23:45;;;;;;;6.43;3.55;;;11.00;72.50;;;;;;2520311;54;21170;-66
2024/01/31 03:26:12;;;;;;;6.15;4.18;;;11.00;72.50;;;;;;2521014;54;21822;-67
2024/01/31 03:28:41;;;;;;;7.18;4.15;;;11.00;72.50;;;;;;2285537;55;21032;-66
2024/01/31 03:31:07;;;;;;;6.15;3.60;;;11.00;72.40;;;;;;2286013;55;20942;-66
2024/01/31 03:33:33;;;;;;;6.55;3.60;;;11.00;72.50;;;;;;2287371;55;20977;-67
2024/01/31 03:36:00;;;;;;;4.97;2.92;;;11.10;72.60;;;;;;2286385;55;20937;-67
2024/01/31 03:38:27;;;;;;;6.85;4.15;;;11.00;72.40;;;;;;2286287;56;20925;-66
2024/01/31 03:40:53;;;;;;;7.47;4.35;;;11.10;72.50;;;;;;2520525;54;21017;-67
2024/01/31 03:43:20;;;;;;;8.43;3.70;;;11.10;72.50;;;;;;2521107;54;20945;-66
2024/01/31 03:45:47;;;;;;;5.75;3.72;;;11.10;72.50;;;;;;2286577;56;21271;-66
2024/01/31 03:48:16;;;;;;;6.37;3.40;;;11.10;72.50;;;;;;2516053;54;20909;-67
2024/01/31 03:50:44;;;;;;;5.90;3.20;;;11.10;72.40;;;;;;2519996;54;20989;-66
2024/01/31 03:53:12;;;;;;;6.60;3.70;;;11.10;72.80;;;;;;2287430;55;21217;-67
2024/01/31 03:55:39;;;;;;;6.00;3.45;;;11.10;72.50;;;;;;2286273;55;21868;-67
2024/01/31 03:58:06;;;;;;;5.60;3.10;;;11.10;72.50;;;;;;2289546;55;21372;-66
2024/01/31 04:00:32;;;;;;;6.40;3.90;;;11.10;72.50;;;;;;2278923;55;21474;-66
2024/01/31 04:02:59;;;;;;;6.40;3.90;;;11.20;72.60;;;;;;2286152;55;21454;-66
2024/01/31 04:05:25;;;;;;;6.28;3.30;;;11.20;72.60;;;;;;2519817;54;20961;-66
2024/01/31 04:07:51;;;;;;;6.20;3.67;;;11.20;72.60;;;;;;2286379;55;20944;-66
2024/01/31 04:10:18;;;;;;;7.05;3.22;;;11.20;72.60;;;;;;2510780;55;21495;-67
2024/01/31 04:12:45;;;;;;;6.55;3.60;;;11.20;72.60;;;;;;2508781;55;21278;-67
2024/01/31 04:15:11;;;;;;;5.75;3.42;;;11.20;72.60;;;;;;2286081;55;21009;-65
2024/01/31 04:17:37;;;;;;;5.82;3.08;;;11.20;72.60;;;;;;2286487;55;20948;-66
2024/01/31 04:20:04;;;;;;;5.97;3.33;;;11.20;72.60;;;;;;2284657;55;21029;-67
2024/01/31 04:22:31;;;;;;;5.65;3.40;;;11.20;72.60;;;;;;2286164;55;21189;-66
2024/01/31 04:24:57;;;;;;;5.57;3.50;;;11.20;72.60;;;;;;2520610;54;20977;-67
2024/01/31 04:27:24;;;;;;;5.97;3.37;;;11.20;72.50;;;;;;2285836;55;21009;-67
2024/01/31 04:29:50;;;;;;;6.32;3.75;;;11.20;72.40;;;;;;2285695;55;20961;-66
2024/01/31 04:32:17;;;;;;;4.97;3.33;;;11.20;72.40;;;;;;2520885;54;20949;-67
2024/01/31 04:34:43;;;;;;;6.22;3.53;;;11.20;72.40;;;;;;2284942;55;21869;-67
2024/01/31 04:37:09;;;;;;;8.82;4.12;;;11.20;72.40;;;;;;2286348;55;21028;-67
2024/01/31 04:39:38;;;;;;;6.47;3.47;;;11.20;72.40;;;;;;2285611;55;21017;-66
2024/01/31 04:42:04;;;;;;;6.25;3.35;;;11.20;72.40;;;;;;2518653;54;20945;-67
2024/01/31 04:44:32;;;;;;;6.22;3.20;;;11.20;72.40;;;;;;2285440;55;21005;-66
2024/01/31 04:46:59;;;;;;;6.05;3.55;;;11.30;72.50;;;;;;2286176;55;20976;-66
2024/01/31 04:49:25;;;;;;;5.80;3.62;;;11.20;72.40;;;;;;2519433;54;21198;-66
2024/01/31 04:51:51;;;;;;;8.57;4.95;;;11.20;72.40;;;;;;2519337;54;21016;-66
2024/01/31 04:54:18;;;;;;;7.05;4.20;;;11.20;72.40;;;;;;2286593;55;20917;-67
2024/01/31 04:56:44;;;;;;;6.62;4.12;;;11.20;72.50;;;;;;2288991;55;21210;-67
2024/01/31 04:59:11;;;;;;;6.47;3.97;;;11.20;72.50;;;;;;2511753;54;20977;-67
2024/01/31 05:01:37;;;;;;;7.35;4.50;;;11.20;72.50;;;;;;2290264;55;21771;-65
2024/01/31 05:04:03;;;;;;;6.03;3.72;;;11.20;72.40;;;;;;2285612;55;20996;-66
2024/01/31 05:06:30;;;;;;;7.50;4.47;;;11.30;72.50;;;;;;2285384;55;21041;-66
2024/01/31 05:08:56;;;;;;;8.80;4.22;;;11.30;72.50;;;;;;2285828;55;20928;-67
2024/01/31 05:11:25;;;;;;;8.05;4.97;;;11.30;72.50;;;;;;2515130;54;21531;-66
2024/01/31 05:13:52;;;;;;;7.93;4.70;;;11.30;72.40;;;;;;2515481;54;21041;-67
2024/01/31 05:16:18;;;;;;;8.27;5.05;;;11.30;72.40;;;;;;2286002;55;21818;-67
2024/01/31 05:18:45;;;;;;;8.15;4.85;;;11.20;72.30;;;;;;2519495;54;21121;-66
2024/01/31 05:21:11;;;;;;;9.68;5.65;;;11.30;72.50;;;;;;2520628;54;20969;-65
2024/01/31 05:23:40;;;;;;;7.70;4.78;;;11.30;72.50;;;;;;2288389;55;21430;-65
2024/01/31 05:26:10;;;;;;;7.57;4.75;;;11.20;72.40;;;;;;2278940;56;20961;-66
2024/01/31 05:28:37;;;;;;;7.75;4.70;;;11.30;72.50;;;;;;2520124;54;20933;-67
2024/01/31 05:31:04;;;;;;;7.90;4.62;;;11.30;72.60;;;;;;2286168;55;21084;-66
2024/01/31 05:33:34;;;;;;;7.50;4.85;;;11.30;72.50;;;;;;2285765;55;20980;-66
2024/01/31 05:36:01;;;;;;;7.45;4.55;;;11.30;72.50;;;;;;2286112;55;21012;-66
2024/01/31 05:38:30;;;;;;;8.65;4.95;;;11.30;72.60;;;;;;2286285;55;20941;-67
2024/01/31 05:40:56;;;;;;;8.38;5.57;;;11.30;72.60;;;;;;2519656;54;20941;-66
2024/01/31 05:43:22;;;;;;;9.13;5.43;;;11.30;72.60;;;;;;2288992;55;21021;-65
2024/01/31 05:45:49;;;;;;;9.90;5.95;;;11.30;72.60;;;;;;2285908;55;20940;-66
2024/01/31 05:48:17;;;;;;;7.62;5.00;;;11.30;72.50;;;;;;2286642;55;21045;-67
2024/01/31 05:50:45;;;;;;;7.62;4.40;;;11.30;72.50;;;;;;2285951;55;21103;-66
2024/01/31 05:53:11;;;;;;;7.90;4.97;;;11.30;72.50;;;;;;2520591;54;21514;-67
2024/01/31 05:55:37;;;;;;;7.25;4.95;;;11.30;72.50;;;;;;2285898;55;20984;-66
2024/01/31 05:58:04;;;;;;;6.82;4.20;;;11.10;72.20;;;;;;2289704;55;21020;-67
2024/01/31 06:00:33;;;;;;;7.78;5.15;;;11.30;72.40;;;;;;2511100;54;21060;-66
2024/01/31 06:02:59;;;;;;;7.18;4.82;;;11.30;72.30;;;;;;2286208;56;21530;-66
2024/01/31 06:05:26;;;;;;;7.75;5.20;;;11.30;72.40;;;;;;2285887;55;21081;-67
2024/01/31 06:07:53;;;;;;;8.65;5.00;;;11.30;72.40;;;;;;2285886;55;20938;-65
2024/01/31 06:10:19;;;;;;;6.87;4.22;;;11.30;72.40;;;;;;2520486;54;20945;-66
2024/01/31 06:12:46;;;;;;;7.72;5.03;;;11.30;72.40;;;;;;2282872;56;20983;-66
2024/01/31 06:15:16;;;;;;;7.43;5.07;;;11.30;72.40;;;;;;2285618;55;20941;-67
2024/01/31 06:17:42;;;;;;;9.50;5.12;;;11.30;72.30;;;;;;2286226;55;21053;-67
2024/01/31 06:20:09;;;;;;;7.28;5.28;;;11.40;72.60;;;;;;2285804;55;20978;-66
2024/01/31 06:22:35;;;;;;;9.02;5.65;;;11.30;72.40;;;;;;2289846;55;21001;-66
2024/01/31 06:25:02;;;;;;;7.37;5.05;;;11.40;72.60;;;;;;2511365;54;21025;-66
2024/01/31 06:27:29;;;;;;;8.65;4.90;;;11.40;72.60;;;;;;2520761;54;20938;-66
2024/01/31 06:29:55;;;;;;;6.93;4.93;;;11.30;72.40;;;;;;2285798;55;21482;-66
2024/01/31 06:32:30;;;;;;;8.77;5.47;;;11.40;72.60;;;;;;2286092;55;20981;-66
2024/01/31 06:34:58;;;;;;;8.80;5.53;;;11.30;72.50;;;;;;2286035;55;21538;-67
2024/01/31 06:37:27;;;;;;;6.62;3.95;;;11.30;73.10;;;;;;2520353;54;20976;-66
2024/01/31 06:39:54;;;;;;;6.03;4.10;;;11.40;72.60;;;;;;2286447;55;20995;-66
2024/01/31 06:42:20;;;;;;;6.12;3.50;;;11.40;72.60;;;;;;2286329;55;20981;-67
2024/01/31 06:44:47;;;;;;;6.87;4.22;;;11.40;72.50;;;;;;2286174;55;21297;-66
2024/01/31 06:47:13;;;;;;;10.73;6.40;;;11.30;72.30;;;;;;2286669;55;21005;-66
2024/01/31 06:49:51;;;;;;;9.75;5.68;;;11.30;72.80;;;;;;2285991;55;21356;-66
2024/01/31 06:52:20;;;;;;;9.32;5.65;;;11.30;72.40;;;;;;2285982;55;20961;-67
2024/01/31 06:54:47;;;;;;;10.75;6.68;;;11.40;72.50;;;;;;2285785;55;21033;-66
2024/01/31 06:57:13;;;;;;;10.18;6.20;;;11.30;72.40;;;;;;2520575;54;20989;-66
2024/01/31 06:59:40;;;;;;;8.95;5.53;;;11.30;72.40;;;;;;2286113;55;21009;-66
2024/01/31 07:02:07;;;;;;;9.98;5.90;;;11.30;72.40;;;;;;2520298;54;21233;-69
2024/01/31 07:04:33;;;;;;;9.73;6.60;;;11.40;72.60;;;;;;2520358;54;21387;-67
2024/01/31 07:06:59;;;;;;;12.82;6.53;;;11.40;72.60;;;;;;2287270;55;20957;-66
2024/01/31 07:09:29;;;;;;;10.32;6.53;;;11.40;72.50;;;;;;2515082;54;20958;-67
2024/01/31 07:11:56;;;;;;;9.32;5.35;;;11.40;72.40;;;;;;2517211;54;20982;-67
2024/01/31 07:14:22;;;;;;;10.65;6.25;;;11.40;72.40;;;;;;2286580;55;21035;-67
2024/01/31 07:16:48;;;;;;;9.52;5.93;;;11.40;72.50;;;;;;2520302;54;20989;-67
2024/01/31 07:19:15;;;;;;;8.18;6.03;;;11.40;72.50;;;;;;2286481;55;20953;-67
2024/01/31 07:21:41;;;;;;;7.95;5.30;;;11.40;72.50;;;;;;2285952;55;20937;-66
2024/01/31 07:24:08;;;;;;;8.68;5.55;;;11.40;72.60;;;;;;2286317;55;22119;-67
2024/01/31 07:26:36;;;;;;;7.85;5.12;;;11.30;72.40;;;;;;2520032;54;21284;-67
2024/01/31 07:29:06;;;;;;;8.15;5.30;;;11.40;72.50;;;;;;2519487;54;21435;-67
2024/01/31 07:31:34;;;;;;;8.80;5.53;;;11.40;72.50;;;;;;2286187;55;20961;-67
2024/01/31 07:34:02;;;;;;;7.68;4.68;;;11.40;72.50;;;;;;2287386;55;21333;-66
2024/01/31 07:36:28;;;;;;;14.45;6.47;;;11.30;72.40;;;;;;2520432;54;20946;-66
2024/01/31 07:38:56;;;;;;;10.02;6.62;;;11.30;72.30;;;;;;2288715;55;20970;-67
2024/01/31 07:41:23;;;;;;;10.32;6.57;;;11.40;72.40;;;;;;2520584;54;20969;-67
2024/01/31 07:43:49;;;;;;;10.82;6.90;;;11.30;72.40;;;;;;2286417;55;20929;-67
2024/01/31 07:46:16;;;;;;;9.77;6.10;;;11.40;72.60;;;;;;2520601;54;21296;-66
2024/01/31 07:48:42;;;;;;;10.32;6.07;;;11.40;72.60;;;;;;2512205;55;21001;-67
2024/01/31 07:51:09;;;;;;;13.62;6.82;;;11.40;72.60;;;;;;2520337;54;20965;-67
2024/01/31 07:53:36;;;;;;;12.48;6.53;;;11.40;72.60;;;;;;2288563;55;20961;-67
2024/01/31 07:56:03;;;;;;;11.63;6.55;;;11.40;72.60;;;;;;2285162;55;20949;-66
2024/01/31 07:58:31;;;;;;;8.13;5.18;;;11.40;72.70;;;;;;2286978;55;21400;-67
2024/01/31 08:00:58;;;;;;;10.30;6.65;;;11.40;72.70;;;;;;2519049;54;21017;-66
2024/01/31 08:03:25;;;;;;;10.13;6.45;;;11.40;72.70;;;;;;2287239;55;21405;-66
2024/01/31 08:05:51;;;;;;;10.57;6.95;;;11.40;72.70;;;;;;2282319;55;21004;-66
2024/01/31 08:08:17;;;;;;;8.55;5.90;;;11.40;72.70;;;;;;2286394;55;20962;-67
2024/01/31 08:10:43;;;;;;;9.27;5.78;;;11.40;72.70;;;;;;2519425;54;21793;-68
2024/01/31 08:13:15;;;;;;;9.10;5.78;;;11.40;72.80;;;;;;2520064;54;21015;-67
2024/01/31 08:15:42;;;;;;;6.97;4.82;;;11.50;72.80;;;;;;2286006;55;21008;-67
2024/01/31 08:18:08;;;;;;;10.57;6.57;;;11.50;72.90;;;;;;2289939;55;21447;-67
2024/01/31 08:20:34;;;;;;;16.90;10.57;;;11.50;72.90;;;;;;2280262;55;20957;-67
2024/01/31 08:23:03;;;;;;;19.33;12.10;;;11.50;72.80;;;;;;2286621;55;20985;-66
2024/01/31 08:25:31;;;;;;;16.65;10.70;;;11.50;72.80;;;;;;2286377;55;20945;-67
2024/01/31 08:27:58;;;;;;;15.70;9.88;;;11.50;72.70;;;;;;2519871;54;21760;-67
2024/01/31 08:30:24;;;;;;;17.83;10.98;;;11.50;72.80;;;;;;2286903;55;20933;-67
2024/01/31 08:32:51;;;;;;;12.30;8.30;;;11.50;72.90;;;;;;2286067;55;21001;-67
2024/01/31 08:35:17;;;;;;;13.38;7.70;;;11.50;72.90;;;;;;2286276;55;22209;-67
2024/01/31 08:37:43;;;;;;;11.32;7.25;;;11.50;72.90;;;;;;2285560;55;20989;-67
2024/01/31 08:40:10;;;;;;;9.82;6.97;;;11.60;72.90;;;;;;2286120;55;21907;-67
2024/01/31 08:42:40;;;;;;;9.15;6.32;;;11.60;72.80;;;;;;2519773;54;21517;-67
2024/01/31 08:45:07;;;;;;;10.98;6.90;;;11.60;72.80;;;;;;2520581;54;21402;-67
2024/01/31 08:47:33;;;;;;;11.18;6.80;;;11.60;72.80;;;;;;2519445;54;21013;-67
2024/01/31 08:50:00;;;;;;;10.07;6.37;;;11.60;72.80;;;;;;2520397;54;21012;-67
2024/01/31 08:52:26;;;;;;;9.80;6.10;;;11.60;72.80;;;;;;2286778;55;20965;-67
2024/01/31 08:54:55;;;;;;;9.52;5.80;;;11.60;72.90;;;;;;2282905;56;21007;-67
2024/01/31 08:57:21;;;;;;;10.43;6.32;;;11.60;72.90;;;;;;2511756;55;21906;-67
2024/01/31 08:59:48;;;;;;;9.57;6.50;;;11.60;73.00;;;;;;2284685;55;21025;-66
2024/01/31 09:02:15;;;;;;;11.45;7.03;;;11.60;72.90;;;;;;2520723;54;21005;-66
2024/01/31 09:04:43;;;;;;;10.02;6.32;;;11.60;72.90;;;;;;2288095;55;21799;-66
2024/01/31 09:07:10;;;;;;;9.52;6.35;;;11.70;73.00;;;;;;2520747;54;20997;-67
2024/01/31 09:09:39;;;;;;;10.20;6.40;;;11.70;72.90;;;;;;2511712;55;20981;-67
2024/01/31 09:12:07;;;;;;;9.82;6.40;;;11.70;73.00;;;;;;2520593;54;21037;-67
2024/01/31 09:14:34;;;;;;;8.32;5.82;;;11.70;73.00;;;;;;2519682;54;21088;-66
2024/01/31 09:17:02;;;;;;;8.80;5.75;;;11.70;72.90;;;;;;2286299;55;21446;-66
2024/01/31 09:19:29;;;;;;;9.30;5.75;;;11.70;72.90;;;;;;2288220;55;20973;-67
2024/01/31 09:21:55;;;;;;;9.23;5.80;;;11.80;73.10;;;;;;2279949;55;21458;-67
2024/01/31 09:24:21;;;;;;;11.80;6.28;;;11.80;73.20;;;;;;2286406;55;20949;-67
2024/01/31 09:26:49;;;;;;;11.02;5.72;;;11.80;73.30;;;;;;2284684;56;21084;-67
2024/01/31 09:29:17;;;;;;;10.45;6.28;;;11.80;73.40;;;;;;2511808;54;20965;-67
2024/01/31 09:31:43;;;;;;;10.35;6.05;;;11.80;73.40;;;;;;2520235;54;21005;-67
2024/01/31 09:34:10;;;;;;;8.82;5.53;;;11.80;73.50;;;;;;2520675;54;20977;-67
2024/01/31 09:36:36;;;;;;;7.87;5.60;;;11.90;73.60;;;;;;2285363;55;20987;-67
2024/01/31 09:39:03;;;;;;;8.98;5.72;;;11.90;73.60;;;;;;2286313;56;21085;-67
2024/01/31 09:41:30;;;;;;;8.35;5.60;;;11.90;73.70;;;;;;2520867;54;20985;-67
2024/01/31 09:43:56;;;;;;;8.18;5.40;;;12.00;73.70;;;;;;2286866;55;21273;-66
2024/01/31 09:46:22;;;;;;;10.48;5.78;;;12.00;73.70;;;;;;2286848;55;20988;-67
2024/01/31 09:48:49;;;;;;;9.15;5.45;;;12.10;73.80;;;;;;2519557;54;20997;-67
2024/01/31 09:51:16;;;;;;;7.82;5.65;;;12.10;73.80;;;;;;2520731;54;21978;-68
2024/01/31 09:53:42;;;;;;;7.80;5.00;;;12.10;73.80;;;;;;2286285;55;21073;-67
2024/01/31 09:56:09;;;;;;;10.65;6.87;;;12.10;73.70;;;;;;2520233;54;20938;-68
2024/01/31 09:58:36;;;;;;;11.85;7.40;;;12.20;73.90;;;;;;2285641;56;20933;-68
2024/01/31 10:01:02;;;;;;;9.48;6.43;;;12.20;73.90;;;;;;2286144;55;21375;-66
2024/01/31 10:03:29;;;;;;;10.07;6.50;;;12.30;74.00;;;;;;2519751;54;21273;-67
2024/01/31 10:05:56;;;;;;;11.27;6.75;;;12.30;73.90;;;;;;2279442;55;20981;-67
2024/01/31 10:08:27;;;;;;;11.18;6.10;;;12.40;73.90;;;;;;2519941;54;20965;-67
2024/01/31 10:10:53;;;;;;;13.35;6.15;;;12.40;73.50;;;;;;2520198;54;20926;-67
2024/01/31 10:13:21;;;;;;;8.73;5.87;;;12.40;73.60;;;;;;2278669;56;20977;-66
2024/01/31 10:15:47;;;;;;;9.13;6.07;;;12.50;73.60;;;;;;2519994;54;23058;-66
2024/01/31 10:18:15;;;;;;;10.02;6.00;;;12.50;73.50;;;;;;2285920;55;21709;-66
2024/01/31 10:20:44;;;;;;;8.68;5.43;;;12.60;73.50;;;;;;2286147;55;20952;-67
2024/01/31 10:23:14;;;;;;;10.15;6.37;;;12.50;73.50;;;;;;2286849;55;21008;-66
2024/01/31 10:25:41;;;;;;;8.73;5.32;;;12.60;73.50;;;;;;2520762;54;20953;-68
2024/01/31 10:28:08;;;;;;;9.32;6.10;;;12.60;73.60;;;;;;2286060;55;20960;-67
2024/01/31 10:30:53;;;;;;;7.57;5.85;;;12.60;73.70;;;;;;2286003;55;21229;-67
2024/01/31 10:33:20;;;;;;;10.57;6.80;;;12.70;73.10;;;;;;2520527;54;21975;-67
2024/01/31 10:35:47;;;;;;;7.55;5.45;;;12.70;73.90;;;;;;2285517;55;21448;-67
2024/01/31 10:38:13;;;;;;;9.45;6.40;;;12.70;73.90;;;;;;2286672;55;21079;-67
2024/01/31 10:40:40;;;;;;;10.25;7.10;;;12.80;74.00;;;;;;2520424;54;20937;-66
2024/01/31 10:43:12;;;;;;;10.85;6.80;;;12.90;74.10;;;;;;2286341;55;21116;-66
2024/01/31 10:45:39;;;;;;;8.30;5.75;;;12.90;73.80;;;;;;2511307;54;20993;-67
2024/01/31 10:48:06;;;;;;;8.63;6.53;;;12.90;73.90;;;;;;2284872;55;20937;-67
2024/01/31 10:50:32;;;;;;;8.85;5.82;;;12.90;73.80;;;;;;2286285;55;20981;-68
2024/01/31 10:52:59;;;;;;;8.63;5.87;;;13.00;74.00;;;;;;2286542;55;21755;-67
2024/01/31 10:55:26;;;;;;;9.82;6.60;;;13.00;74.00;;;;;;2282002;56;20984;-66
2024/01/31 10:57:53;;;;;;;13.20;7.05;;;13.10;74.00;;;;;;2283549;55;20993;-67
2024/01/31 11:00:28;;;;;;;9.15;6.72;;;13.10;73.90;;;;;;2520575;54;21202;-67
2024/01/31 11:02:56;;;;;;;10.40;6.45;;;13.20;73.60;;;;;;2286555;55;20953;-67
2024/01/31 11:05:27;;;;;;;8.45;5.87;;;13.30;74.10;;;;;;2288307;55;20973;-68
2024/01/31 11:07:53;;;;;;;9.45;6.60;;;13.20;74.00;;;;;;2285895;55;21677;-67
2024/01/31 11:10:21;;;;;;;9.38;6.30;;;13.30;74.00;;;;;;2286396;55;21037;-68
2024/01/31 11:13:01;;;;;;;42.95;23.23;;;13.30;73.90;;;;;;2519593;54;21026;-68
2024/01/31 11:15:29;;;;;;;27.98;16.65;;;13.30;73.40;;;;;;2513354;54;20945;-66
2024/01/31 11:18:11;;;;;;;19.27;11.63;;;13.40;73.90;;;;;;2285909;55;21559;-66
2024/01/31 11:20:46;;;;;;;15.82;9.23;;;13.40;73.30;;;;;;2520443;54;21443;-68
2024/01/31 11:23:14;;;;;;;14.32;7.78;;;13.50;73.70;;;;;;2517400;54;20985;-67
2024/01/31 11:25:42;;;;;;;11.63;7.00;;;13.50;73.90;;;;;;2514856;54;21515;-67
2024/01/31 11:28:12;;;;;;;11.77;6.25;;;13.50;73.80;;;;;;2286633;55;21036;-67
2024/01/31 11:30:39;;;;;;;10.77;6.93;;;13.60;74.20;;;;;;2286433;55;21032;-67
2024/01/31 11:33:05;;;;;;;8.70;5.80;;;13.50;73.50;;;;;;2285463;55;20964;-67
2024/01/31 11:35:32;;;;;;;8.23;5.68;;;13.60;73.60;;;;;;2286435;55;21553;-67
2024/01/31 11:38:02;;;;;;;8.30;5.82;;;13.60;73.60;;;;;;2286226;55;20921;-67
2024/01/31 11:40:28;;;;;;;8.48;6.12;;;13.70;73.50;;;;;;2520547;54;20949;-66
2024/01/31 11:42:59;;;;;;;12.10;7.53;;;13.70;73.60;;;;;;2520274;54;21001;-68
2024/01/31 11:45:25;;;;;;;9.48;6.87;;;13.70;73.70;;;;;;2519990;54;21432;-67
2024/01/31 11:47:55;;;;;;;8.35;5.93;;;13.70;73.80;;;;;;2285863;55;20996;-66
2024/01/31 11:50:22;;;;;;;7.53;5.43;;;13.80;73.90;;;;;;2282169;56;21755;-68
2024/01/31 11:52:50;;;;;;;6.80;4.75;;;13.80;74.10;;;;;;2520695;54;21241;-66
2024/01/31 11:55:23;;;;;;;8.05;5.93;;;13.80;74.20;;;;;;2286283;55;20917;-67
2024/01/31 11:57:50;;;;;;;9.80;6.85;;;13.90;74.00;;;;;;2286474;56;21284;-67
2024/01/31 12:00:17;;;;;;;8.27;6.57;;;13.90;74.30;;;;;;2282622;56;20953;-67
2024/01/31 12:02:46;;;;;;;10.15;6.90;;;13.90;74.30;;;;;;2520402;54;21478;-67
2024/01/31 12:05:12;;;;;;;10.45;7.03;;;14.00;74.20;;;;;;2520728;54;20941;-67
2024/01/31 12:07:43;;;;;;;11.48;7.05;;;14.00;74.40;;;;;;2520552;54;20996;-67
2024/01/31 12:10:09;;;;;;;9.73;7.05;;;14.10;74.40;;;;;;2513306;54;21045;-68
2024/01/31 12:12:42;;;;;;;10.18;6.87;;;14.10;74.60;;;;;;2515450;54;21435;-66
2024/01/31 12:15:12;;;;;;;8.68;6.03;;;14.20;74.70;;;;;;2286091;55;21037;-68
2024/01/31 12:17:38;;;;;;;9.43;6.62;;;14.30;74.70;;;;;;2520370;54;21073;-68
2024/01/31 12:20:06;;;;;;;7.87;5.90;;;14.30;74.80;;;;;;2520718;54;20926;-66
2024/01/31 12:22:32;;;;;;;7.97;5.72;;;14.40;74.90;;;;;;2520059;54;20994;-67
2024/01/31 12:25:01;;;;;;;9.60;5.60;;;14.40;75.00;;;;;;2285844;55;20933;-66
2024/01/31 12:27:27;;;;;;;8.02;5.40;;;14.50;75.00;;;;;;2511305;54;22028;-67
2024/01/31 12:29:53;;;;;;;7.95;5.18;;;14.50;75.00;;;;;;2286248;55;20925;-67
2024/01/31 12:32:21;;;;;;;9.13;6.10;;;14.50;74.90;;;;;;2286379;56;20953;-67
2024/01/31 12:34:47;;;;;;;7.70;5.47;;;14.60;74.90;;;;;;2285488;55;20969;-68
2024/01/31 12:37:13;;;;;;;7.37;5.18;;;14.70;74.90;;;;;;2286355;55;20957;-67
2024/01/31 12:39:40;;;;;;;9.73;6.35;;;14.70;74.80;;;;;;2286091;55;22114;-68
2024/01/31 12:42:07;;;;;;;8.43;5.32;;;14.80;74.70;;;;;;2519873;54;21069;-68